Strona główna
METAR-TAF:

METAR-TAF

Lotnisko :

Port lotniczy Caen-Carpiquet

Caen, Francja

Szerokość geograficzna: 49-11N, Długość geograficzna: 000-27W, wysokość: 78 m

Aktualna obserwacja pogody

Raport powstał 48 minut temu, godzina 12:00 UTC
Wiatr 8 kt od północny zachód, zmienny między zachód i północny wschód
Temperatura 25°C
Wilgotność 47%
Ciśnienie 1015 hPa
Widzialność 10 km lub więcej
Brak chmur poniżej 1500 m i brak chmur cumulonimbus

METAR: LFRK 171200Z AUTO 31008KT 280V050 CAVOK 25/13 Q1015 NOSIG

czas: 14:48 (12:48 UTC)

Prognoza

Raport powstał 1 godzina i 48 minut temu, godzina 11:00 UTC
Prognoza ważna od 17 godzina 12 UTC do 17 godzina 21 UTC
Wiatr 10 kt od północ
Widzialność 10 km lub więcej
Brak chmur poniżej 1500 m i brak chmur cumulonimbus
Stopniowe zmiany
od 17 godzina 19 UTC do 17 godzina 21 UTC
Wiatr 5 kt od zachodnio-północny zachód

TAF: LFRK 171100Z 1712/1721 36010KT CAVOK BECMG 1719/1721 30005KT

Obserwacja i prognoza pogody dla ponad 4000 lotnisk (raport METAR i TAF).

Dostępne stacje oznaczono żółtymi i czerwonymi punktami na mapie.

Najedź kursorem aby zobaczyć nazwę stacji.

Kliknij aby zobaczyć obserwacje i prognozy pogody.

Aby zmienić mapę: kliknij na zielony przycisk z czarnym krzyżykiem, aby powiększyć; na zielony przycisk z myślnikiem, aby pomniejszyć; na zielone strzałki, aby przejść do map sąsiednich.


METAR-TAF: